Airfield :
LOGIN :

Register | Disclaimer

   EN    FR    IT 

 










Legend :    VFR   Marginal VFR   IFR   Intensive IFR   Very Intensive IFR
Visi :
Ceiling :
>= 8 km
>= 3000ft
5 to 8 km
1000 to 3000 ft
1500m to 5 km
500 to 1000 ft
800 to 1500m
200 to 500 ft
< 800m
< 200 ft
Symbols :   Thunderstorms  Fog  Heavy snow  Heavy precipitations  Wind > 20 kt
SIGMETs :     Misc.  Thunderstorms  Icing  Turbulence  Mountain Waves  Volcanic Ashes






- Airport Elevation : 194 ft
- IATA code : LME


LFRM - Le Mans

CURRENT METAR :
  • 110000Z AUTO 19010KT 160V230 9999 -DZ OVC018 09/07 Q1014

EXPIRED METARs :
  • 102330Z AUTO 19010KT 140V220 9999 BKN020 OVC028 09/06 Q1015
  • 102300Z AUTO 19009KT 160V220 9999 SCT018 OVC028 09/06 Q1015
  • 102230Z AUTO 19009KT 9999 SCT017 OVC029 09/06 Q1015
  • 102200Z AUTO 19008KT 150V220 9999 BKN017 OVC032 09/06 Q1016
  • 102130Z AUTO 19008KT 150V210 9999 BKN017 OVC039 09/06 Q1016

TAF AMD TAF LFRM
Valid from the 10 at 18:00 until the 11 at 12:00 UTC


101810Z 1018/1112 19012KT 9999 BKN035
TEMPO 1100/1106 4500 RA BKN008
BECMG 1104/1106 27005KT 9999 NSW SCT035 BKN045



MET'MAP, your aeronautical weather chart ! - Copyright ORBIFLY December 2007 - Disclaimer

ORBIFLY MET'MAP TEAM :

Programming & Development : Alexandra Zaïnal
Concept & original design : Baudouin d'Aumeries
Assistance for programming : Marc-Olivier Méhu
Technical & hardware support : Manuel Goepfert

Contact : metmap@orbifly.com




SOURCES & CREDITS :

   NOAA